sensor_id;sensor_type;location;lat;lon;timestamp;P1;durP1;ratioP1;P2;durP2;ratioP2
48805;SDS011;34625;47.176;27.548;2022-12-04T00:01:31;5.45;;;3.85;;
48805;SDS011;34625;47.176;27.548;2022-12-04T00:03:58;8.15;;;5.43;;
48805;SDS011;34625;47.176;27.548;2022-12-04T00:06:25;7.53;;;5.10;;
48805;SDS011;34625;47.176;27.548;2022-12-04T00:08:51;9.05;;;5.38;;
48805;SDS011;34625;47.176;27.548;2022-12-04T00:11:20;8.18;;;4.97;;
48805;SDS011;34625;47.176;27.548;2022-12-04T00:13:48;10.27;;;5.05;;
48805;SDS011;34625;47.176;27.548;2022-12-04T00:16:18;6.45;;;4.93;;
48805;SDS011;34625;47.176;27.548;2022-12-04T00:18:45;6.93;;;4.07;;
48805;SDS011;34625;47.176;27.548;2022-12-04T00:21:12;9.38;;;5.10;;
48805;SDS011;34625;47.176;27.548;2022-12-04T00:23:40;7.82;;;4.47;;
48805;SDS011;34625;47.176;27.548;2022-12-04T00:26:11;7.65;;;4.63;;
48805;SDS011;34625;47.176;27.548;2022-12-04T00:28:45;7.28;;;4.15;;
48805;SDS011;34625;47.176;27.548;2022-12-04T00:31:12;6.68;;;4.60;;
48805;SDS011;34625;47.176;27.548;2022-12-04T00:33:39;8.73;;;4.70;;
48805;SDS011;34625;47.176;27.548;2022-12-04T00:36:08;6.38;;;4.43;;
48805;SDS011;34625;47.176;27.548;2022-12-04T00:38:36;6.22;;;4.10;;
48805;SDS011;34625;47.176;27.548;2022-12-04T00:41:03;7.13;;;4.72;;
48805;SDS011;34625;47.176;27.548;2022-12-04T00:43:29;8.95;;;4.90;;
48805;SDS011;34625;47.176;27.548;2022-12-04T00:45:56;7.45;;;4.63;;
48805;SDS011;34625;47.176;27.548;2022-12-04T00:48:22;3.17;;;2.20;;
48805;SDS011;34625;47.176;27.548;2022-12-04T00:50:48;7.10;;;4.85;;
48805;SDS011;34625;47.176;27.548;2022-12-04T00:53:14;6.03;;;3.97;;
48805;SDS011;34625;47.176;27.548;2022-12-04T00:55:40;8.73;;;4.35;;
48805;SDS011;34625;47.176;27.548;2022-12-04T00:58:07;4.38;;;3.40;;
48805;SDS011;34625;47.176;27.548;2022-12-04T01:00:37;2.90;;;2.33;;
48805;SDS011;34625;47.176;27.548;2022-12-04T01:03:05;7.05;;;4.60;;
48805;SDS011;34625;47.176;27.548;2022-12-04T01:05:31;5.50;;;4.20;;
48805;SDS011;34625;47.176;27.548;2022-12-04T01:08:02;8.63;;;4.53;;
48805;SDS011;34625;47.176;27.548;2022-12-04T01:10:28;8.43;;;4.85;;
48805;SDS011;34625;47.176;27.548;2022-12-04T01:12:54;7.38;;;4.43;;
48805;SDS011;34625;47.176;27.548;2022-12-04T01:15:20;4.93;;;3.78;;
48805;SDS011;34625;47.176;27.548;2022-12-04T01:17:45;6.80;;;4.00;;
48805;SDS011;34625;47.176;27.548;2022-12-04T01:20:12;6.30;;;4.50;;
48805;SDS011;34625;47.176;27.548;2022-12-04T01:22:39;4.75;;;3.75;;
48805;SDS011;34625;47.176;27.548;2022-12-04T01:25:05;5.25;;;3.47;;
48805;SDS011;34625;47.176;27.548;2022-12-04T01:27:32;7.60;;;4.30;;
48805;SDS011;34625;47.176;27.548;2022-12-04T01:29:58;7.85;;;4.63;;
48805;SDS011;34625;47.176;27.548;2022-12-04T01:32:24;5.07;;;4.05;;
48805;SDS011;34625;47.176;27.548;2022-12-04T01:34:49;7.88;;;4.85;;
48805;SDS011;34625;47.176;27.548;2022-12-04T01:37:15;5.03;;;3.60;;
48805;SDS011;34625;47.176;27.548;2022-12-04T01:39:42;8.60;;;4.88;;
48805;SDS011;34625;47.176;27.548;2022-12-04T01:42:13;7.68;;;4.18;;
48805;SDS011;34625;47.176;27.548;2022-12-04T01:44:44;5.75;;;3.85;;
48805;SDS011;34625;47.176;27.548;2022-12-04T01:47:47;7.78;;;5.35;;
48805;SDS011;34625;47.176;27.548;2022-12-04T01:50:13;10.23;;;4.45;;
48805;SDS011;34625;47.176;27.548;2022-12-04T01:52:39;7.18;;;4.60;;
48805;SDS011;34625;47.176;27.548;2022-12-04T01:55:06;8.68;;;4.97;;
48805;SDS011;34625;47.176;27.548;2022-12-04T01:57:33;8.00;;;5.00;;
48805;SDS011;34625;47.176;27.548;2022-12-04T02:00:01;6.95;;;4.53;;
48805;SDS011;34625;47.176;27.548;2022-12-04T02:02:35;5.80;;;4.13;;
48805;SDS011;34625;47.176;27.548;2022-12-04T02:05:08;6.43;;;3.90;;
48805;SDS011;34625;47.176;27.548;2022-12-04T02:07:37;7.00;;;4.40;;
48805;SDS011;34625;47.176;27.548;2022-12-04T02:10:05;8.43;;;5.00;;
48805;SDS011;34625;47.176;27.548;2022-12-04T02:15:22;5.00;;;3.83;;
48805;SDS011;34625;47.176;27.548;2022-12-04T02:17:51;6.35;;;4.43;;
48805;SDS011;34625;47.176;27.548;2022-12-04T02:20:41;11.10;;;5.60;;
48805;SDS011;34625;47.176;27.548;2022-12-04T02:31:19;8.27;;;5.05;;
48805;SDS011;34625;47.176;27.548;2022-12-04T02:33:56;10.07;;;4.18;;
48805;SDS011;34625;47.176;27.548;2022-12-04T02:36:42;8.60;;;5.07;;
48805;SDS011;34625;47.176;27.548;2022-12-04T02:42:04;9.98;;;4.88;;
48805;SDS011;34625;47.176;27.548;2022-12-04T02:44:41;8.40;;;5.75;;
48805;SDS011;34625;47.176;27.548;2022-12-04T02:47:19;8.50;;;5.55;;
48805;SDS011;34625;47.176;27.548;2022-12-04T02:49:50;7.75;;;4.68;;
48805;SDS011;34625;47.176;27.548;2022-12-04T02:52:21;11.05;;;5.80;;
48805;SDS011;34625;47.176;27.548;2022-12-04T02:54:54;9.43;;;4.93;;
48805;SDS011;34625;47.176;27.548;2022-12-04T02:57:25;7.80;;;4.80;;
48805;SDS011;34625;47.176;27.548;2022-12-04T02:59:55;9.15;;;5.47;;
48805;SDS011;34625;47.176;27.548;2022-12-04T03:02:31;9.32;;;5.93;;
48805;SDS011;34625;47.176;27.548;2022-12-04T03:04:59;9.15;;;5.68;;
48805;SDS011;34625;47.176;27.548;2022-12-04T03:07:51;11.93;;;5.95;;
48805;SDS011;34625;47.176;27.548;2022-12-04T03:10:22;8.23;;;4.97;;
48805;SDS011;34625;47.176;27.548;2022-12-04T03:12:57;6.68;;;4.53;;
48805;SDS011;34625;47.176;27.548;2022-12-04T03:15:29;10.52;;;4.60;;
48805;SDS011;34625;47.176;27.548;2022-12-04T03:18:20;10.45;;;5.63;;
48805;SDS011;34625;47.176;27.548;2022-12-04T03:20:52;4.72;;;3.17;;
48805;SDS011;34625;47.176;27.548;2022-12-04T03:23:26;9.82;;;5.55;;
48805;SDS011;34625;47.176;27.548;2022-12-04T03:26:02;8.10;;;4.78;;
48805;SDS011;34625;47.176;27.548;2022-12-04T03:32:04;8.77;;;5.05;;
48805;SDS011;34625;47.176;27.548;2022-12-04T03:34:54;8.13;;;5.35;;
48805;SDS011;34625;47.176;27.548;2022-12-04T03:37:38;6.95;;;5.10;;
48805;SDS011;34625;47.176;27.548;2022-12-04T03:40:38;8.38;;;5.10;;
48805;SDS011;34625;47.176;27.548;2022-12-04T03:49:14;9.07;;;5.00;;
48805;SDS011;34625;47.176;27.548;2022-12-04T03:51:43;7.43;;;5.30;;
48805;SDS011;34625;47.176;27.548;2022-12-04T03:54:18;9.38;;;4.63;;
48805;SDS011;34625;47.176;27.548;2022-12-04T03:56:58;7.28;;;4.93;;
48805;SDS011;34625;47.176;27.548;2022-12-04T03:59:34;6.95;;;4.35;;
48805;SDS011;34625;47.176;27.548;2022-12-04T04:02:09;9.98;;;5.03;;
48805;SDS011;34625;47.176;27.548;2022-12-04T04:04:40;7.30;;;4.77;;
48805;SDS011;34625;47.176;27.548;2022-12-04T04:07:19;11.93;;;5.75;;
48805;SDS011;34625;47.176;27.548;2022-12-04T04:09:55;10.90;;;5.30;;
48805;SDS011;34625;47.176;27.548;2022-12-04T04:12:26;10.75;;;5.60;;
48805;SDS011;34625;47.176;27.548;2022-12-04T04:15:00;9.00;;;5.28;;
48805;SDS011;34625;47.176;27.548;2022-12-04T04:17:50;9.77;;;4.72;;
48805;SDS011;34625;47.176;27.548;2022-12-04T04:20:37;10.07;;;5.47;;
48805;SDS011;34625;47.176;27.548;2022-12-04T04:23:27;9.93;;;5.25;;
48805;SDS011;34625;47.176;27.548;2022-12-04T04:26:15;8.98;;;5.00;;
48805;SDS011;34625;47.176;27.548;2022-12-04T04:28:42;9.13;;;5.40;;
48805;SDS011;34625;47.176;27.548;2022-12-04T04:31:11;7.63;;;4.80;;
48805;SDS011;34625;47.176;27.548;2022-12-04T04:33:46;12.40;;;5.13;;
48805;SDS011;34625;47.176;27.548;2022-12-04T04:39:23;10.73;;;5.25;;
48805;SDS011;34625;47.176;27.548;2022-12-04T04:41:57;8.30;;;4.45;;
48805;SDS011;34625;47.176;27.548;2022-12-04T04:47:37;9.43;;;4.20;;
48805;SDS011;34625;47.176;27.548;2022-12-04T04:50:06;8.02;;;3.83;;
48805;SDS011;34625;47.176;27.548;2022-12-04T04:52:34;6.60;;;4.60;;
48805;SDS011;34625;47.176;27.548;2022-12-04T04:55:02;9.43;;;4.85;;
48805;SDS011;34625;47.176;27.548;2022-12-04T04:57:31;7.82;;;4.28;;
48805;SDS011;34625;47.176;27.548;2022-12-04T05:00:00;7.70;;;3.63;;
48805;SDS011;34625;47.176;27.548;2022-12-04T05:02:31;8.30;;;5.28;;
48805;SDS011;34625;47.176;27.548;2022-12-04T05:04:58;8.43;;;4.82;;
48805;SDS011;34625;47.176;27.548;2022-12-04T05:07:24;7.93;;;4.70;;
48805;SDS011;34625;47.176;27.548;2022-12-04T05:09:50;9.43;;;5.68;;
48805;SDS011;34625;47.176;27.548;2022-12-04T05:12:16;10.82;;;5.25;;
48805;SDS011;34625;47.176;27.548;2022-12-04T05:14:42;8.50;;;5.72;;
48805;SDS011;34625;47.176;27.548;2022-12-04T05:17:07;9.10;;;5.00;;
48805;SDS011;34625;47.176;27.548;2022-12-04T05:19:34;6.70;;;3.75;;
48805;SDS011;34625;47.176;27.548;2022-12-04T05:22:19;5.93;;;3.58;;
48805;SDS011;34625;47.176;27.548;2022-12-04T05:24:45;7.57;;;4.30;;
48805;SDS011;34625;47.176;27.548;2022-12-04T05:27:12;7.60;;;4.57;;
48805;SDS011;34625;47.176;27.548;2022-12-04T05:29:38;7.70;;;4.82;;
48805;SDS011;34625;47.176;27.548;2022-12-04T05:32:04;9.57;;;4.93;;
48805;SDS011;34625;47.176;27.548;2022-12-04T05:34:30;7.97;;;4.15;;
48805;SDS011;34625;47.176;27.548;2022-12-04T05:36:56;8.45;;;4.90;;
48805;SDS011;34625;47.176;27.548;2022-12-04T05:39:22;5.57;;;3.72;;
48805;SDS011;34625;47.176;27.548;2022-12-04T05:41:48;7.82;;;5.07;;
48805;SDS011;34625;47.176;27.548;2022-12-04T05:44:14;7.72;;;5.57;;
48805;SDS011;34625;47.176;27.548;2022-12-04T05:46:40;10.32;;;4.38;;
48805;SDS011;34625;47.176;27.548;2022-12-04T05:49:06;11.55;;;6.03;;
48805;SDS011;34625;47.176;27.548;2022-12-04T05:51:32;8.65;;;4.43;;
48805;SDS011;34625;47.176;27.548;2022-12-04T05:53:58;4.15;;;3.20;;
48805;SDS011;34625;47.176;27.548;2022-12-04T05:56:24;3.65;;;2.60;;
48805;SDS011;34625;47.176;27.548;2022-12-04T05:58:50;5.80;;;4.18;;
48805;SDS011;34625;47.176;27.548;2022-12-04T06:01:17;4.72;;;3.40;;
48805;SDS011;34625;47.176;27.548;2022-12-04T06:03:45;4.10;;;3.40;;
48805;SDS011;34625;47.176;27.548;2022-12-04T06:06:14;9.38;;;5.60;;
48805;SDS011;34625;47.176;27.548;2022-12-04T06:08:42;5.88;;;4.22;;
48805;SDS011;34625;47.176;27.548;2022-12-04T06:11:09;7.13;;;4.72;;
48805;SDS011;34625;47.176;27.548;2022-12-04T06:13:39;7.50;;;4.50;;
48805;SDS011;34625;47.176;27.548;2022-12-04T06:16:16;5.35;;;3.97;;
48805;SDS011;34625;47.176;27.548;2022-12-04T06:18:49;5.43;;;3.58;;
48805;SDS011;34625;47.176;27.548;2022-12-04T06:21:16;6.20;;;4.28;;
48805;SDS011;34625;47.176;27.548;2022-12-04T06:23:42;9.00;;;4.78;;
48805;SDS011;34625;47.176;27.548;2022-12-04T06:26:09;7.90;;;4.53;;
48805;SDS011;34625;47.176;27.548;2022-12-04T06:28:35;7.63;;;4.25;;
48805;SDS011;34625;47.176;27.548;2022-12-04T06:31:05;7.82;;;4.25;;
48805;SDS011;34625;47.176;27.548;2022-12-04T06:33:34;7.95;;;4.63;;
48805;SDS011;34625;47.176;27.548;2022-12-04T06:36:04;7.68;;;4.53;;
48805;SDS011;34625;47.176;27.548;2022-12-04T06:38:33;7.70;;;5.10;;
48805;SDS011;34625;47.176;27.548;2022-12-04T06:41:01;9.90;;;4.97;;
48805;SDS011;34625;47.176;27.548;2022-12-04T06:43:28;5.18;;;4.25;;
48805;SDS011;34625;47.176;27.548;2022-12-04T06:46:01;5.35;;;3.83;;
48805;SDS011;34625;47.176;27.548;2022-12-04T06:48:29;10.50;;;5.78;;
48805;SDS011;34625;47.176;27.548;2022-12-04T06:51:02;9.10;;;4.57;;
48805;SDS011;34625;47.176;27.548;2022-12-04T06:53:31;5.65;;;4.43;;
48805;SDS011;34625;47.176;27.548;2022-12-04T06:55:58;6.90;;;4.53;;
48805;SDS011;34625;47.176;27.548;2022-12-04T06:58:26;6.60;;;4.18;;
48805;SDS011;34625;47.176;27.548;2022-12-04T07:00:52;8.88;;;5.40;;
48805;SDS011;34625;47.176;27.548;2022-12-04T07:03:19;7.35;;;4.93;;
48805;SDS011;34625;47.176;27.548;2022-12-04T07:05:45;7.00;;;5.57;;
48805;SDS011;34625;47.176;27.548;2022-12-04T07:08:12;11.45;;;6.03;;
48805;SDS011;34625;47.176;27.548;2022-12-04T07:10:38;9.50;;;5.70;;
48805;SDS011;34625;47.176;27.548;2022-12-04T07:13:04;6.45;;;3.70;;
48805;SDS011;34625;47.176;27.548;2022-12-04T07:15:31;6.07;;;4.28;;
48805;SDS011;34625;47.176;27.548;2022-12-04T07:17:58;7.53;;;5.32;;
48805;SDS011;34625;47.176;27.548;2022-12-04T07:20:25;6.97;;;5.25;;
48805;SDS011;34625;47.176;27.548;2022-12-04T07:22:51;6.53;;;4.15;;
48805;SDS011;34625;47.176;27.548;2022-12-04T07:25:17;7.90;;;4.93;;
48805;SDS011;34625;47.176;27.548;2022-12-04T07:27:43;8.07;;;4.35;;
48805;SDS011;34625;47.176;27.548;2022-12-04T07:30:10;7.60;;;5.30;;
48805;SDS011;34625;47.176;27.548;2022-12-04T07:32:36;7.57;;;5.25;;
48805;SDS011;34625;47.176;27.548;2022-12-04T07:35:02;11.00;;;6.53;;
48805;SDS011;34625;47.176;27.548;2022-12-04T07:37:29;9.10;;;5.13;;
48805;SDS011;34625;47.176;27.548;2022-12-04T07:39:56;6.57;;;4.45;;
48805;SDS011;34625;47.176;27.548;2022-12-04T07:42:22;11.48;;;5.57;;
48805;SDS011;34625;47.176;27.548;2022-12-04T07:44:48;7.88;;;5.13;;
48805;SDS011;34625;47.176;27.548;2022-12-04T07:47:14;10.05;;;5.28;;
48805;SDS011;34625;47.176;27.548;2022-12-04T07:49:40;7.32;;;5.03;;
48805;SDS011;34625;47.176;27.548;2022-12-04T07:52:06;7.93;;;4.82;;
48805;SDS011;34625;47.176;27.548;2022-12-04T07:54:32;8.93;;;4.30;;
48805;SDS011;34625;47.176;27.548;2022-12-04T07:56:58;6.28;;;5.22;;
48805;SDS011;34625;47.176;27.548;2022-12-04T07:59:24;8.85;;;5.18;;
48805;SDS011;34625;47.176;27.548;2022-12-04T08:01:50;6.72;;;5.00;;
48805;SDS011;34625;47.176;27.548;2022-12-04T08:04:15;7.55;;;5.35;;
48805;SDS011;34625;47.176;27.548;2022-12-04T08:06:41;7.78;;;4.72;;
48805;SDS011;34625;47.176;27.548;2022-12-04T08:09:07;6.03;;;4.55;;
48805;SDS011;34625;47.176;27.548;2022-12-04T08:11:33;9.57;;;5.25;;
48805;SDS011;34625;47.176;27.548;2022-12-04T08:14:00;7.97;;;5.28;;
48805;SDS011;34625;47.176;27.548;2022-12-04T08:16:28;5.93;;;3.85;;
48805;SDS011;34625;47.176;27.548;2022-12-04T08:18:56;5.28;;;3.33;;
48805;SDS011;34625;47.176;27.548;2022-12-04T08:21:23;6.93;;;3.70;;
48805;SDS011;34625;47.176;27.548;2022-12-04T08:23:51;9.13;;;4.20;;
48805;SDS011;34625;47.176;27.548;2022-12-04T08:26:19;8.98;;;4.90;;
48805;SDS011;34625;47.176;27.548;2022-12-04T08:28:47;5.82;;;4.00;;
48805;SDS011;34625;47.176;27.548;2022-12-04T08:31:20;6.63;;;4.25;;
48805;SDS011;34625;47.176;27.548;2022-12-04T08:33:52;3.80;;;3.08;;
48805;SDS011;34625;47.176;27.548;2022-12-04T08:36:20;10.27;;;4.85;;
48805;SDS011;34625;47.176;27.548;2022-12-04T08:38:46;7.75;;;3.95;;
48805;SDS011;34625;47.176;27.548;2022-12-04T08:41:14;6.45;;;4.88;;
48805;SDS011;34625;47.176;27.548;2022-12-04T08:43:42;11.35;;;5.88;;
48805;SDS011;34625;47.176;27.548;2022-12-04T08:46:09;8.00;;;4.43;;
48805;SDS011;34625;47.176;27.548;2022-12-04T08:48:38;5.85;;;3.75;;
48805;SDS011;34625;47.176;27.548;2022-12-04T08:51:04;8.15;;;4.88;;
48805;SDS011;34625;47.176;27.548;2022-12-04T08:53:34;6.63;;;4.47;;
48805;SDS011;34625;47.176;27.548;2022-12-04T08:56:03;8.50;;;5.60;;
48805;SDS011;34625;47.176;27.548;2022-12-04T08:58:29;6.78;;;5.85;;
48805;SDS011;34625;47.176;27.548;2022-12-04T09:00:55;6.75;;;5.15;;
48805;SDS011;34625;47.176;27.548;2022-12-04T09:03:31;9.52;;;4.60;;
48805;SDS011;34625;47.176;27.548;2022-12-04T09:05:58;9.55;;;4.15;;
48805;SDS011;34625;47.176;27.548;2022-12-04T09:08:25;7.22;;;4.10;;
48805;SDS011;34625;47.176;27.548;2022-12-04T09:10:51;5.95;;;5.32;;
48805;SDS011;34625;47.176;27.548;2022-12-04T09:13:17;7.45;;;5.05;;
48805;SDS011;34625;47.176;27.548;2022-12-04T09:15:43;11.85;;;6.63;;
48805;SDS011;34625;47.176;27.548;2022-12-04T09:18:09;7.93;;;4.57;;
48805;SDS011;34625;47.176;27.548;2022-12-04T09:20:35;8.35;;;5.80;;
48805;SDS011;34625;47.176;27.548;2022-12-04T09:23:02;6.78;;;4.25;;
48805;SDS011;34625;47.176;27.548;2022-12-04T09:25:28;7.22;;;5.45;;
48805;SDS011;34625;47.176;27.548;2022-12-04T09:27:55;8.18;;;5.25;;
48805;SDS011;34625;47.176;27.548;2022-12-04T09:30:21;8.05;;;5.43;;
48805;SDS011;34625;47.176;27.548;2022-12-04T09:32:46;9.57;;;5.07;;
48805;SDS011;34625;47.176;27.548;2022-12-04T09:35:12;8.57;;;5.95;;
48805;SDS011;34625;47.176;27.548;2022-12-04T09:37:38;5.82;;;4.38;;
48805;SDS011;34625;47.176;27.548;2022-12-04T09:40:05;9.45;;;5.35;;
48805;SDS011;34625;47.176;27.548;2022-12-04T09:45:23;8.18;;;4.40;;
48805;SDS011;34625;47.176;27.548;2022-12-04T09:47:51;4.95;;;4.43;;
48805;SDS011;34625;47.176;27.548;2022-12-04T09:50:21;17.67;;;5.88;;
48805;SDS011;34625;47.176;27.548;2022-12-04T09:53:00;7.30;;;4.13;;
48805;SDS011;34625;47.176;27.548;2022-12-04T09:55:31;6.38;;;4.85;;
48805;SDS011;34625;47.176;27.548;2022-12-04T09:58:06;6.97;;;4.30;;
48805;SDS011;34625;47.176;27.548;2022-12-04T10:00:37;6.53;;;3.87;;
48805;SDS011;34625;47.176;27.548;2022-12-04T10:03:14;9.55;;;4.53;;
48805;SDS011;34625;47.176;27.548;2022-12-04T10:08:28;9.75;;;4.63;;
48805;SDS011;34625;47.176;27.548;2022-12-04T10:26:43;13.43;;;7.75;;
48805;SDS011;34625;47.176;27.548;2022-12-04T10:29:24;10.60;;;6.53;;
48805;SDS011;34625;47.176;27.548;2022-12-04T10:31:55;8.38;;;4.90;;
48805;SDS011;34625;47.176;27.548;2022-12-04T10:34:29;12.18;;;5.93;;
48805;SDS011;34625;47.176;27.548;2022-12-04T10:37:00;11.88;;;5.40;;
48805;SDS011;34625;47.176;27.548;2022-12-04T10:39:35;24.10;;;6.22;;
48805;SDS011;34625;47.176;27.548;2022-12-04T10:44:46;8.18;;;5.18;;
48805;SDS011;34625;47.176;27.548;2022-12-04T10:47:12;14.60;;;6.60;;
48805;SDS011;34625;47.176;27.548;2022-12-04T10:49:38;8.77;;;7.03;;
48805;SDS011;34625;47.176;27.548;2022-12-04T10:52:05;8.93;;;5.07;;
48805;SDS011;34625;47.176;27.548;2022-12-04T10:54:36;5.68;;;4.88;;
48805;SDS011;34625;47.176;27.548;2022-12-04T10:59:39;9.93;;;6.10;;
48805;SDS011;34625;47.176;27.548;2022-12-04T11:02:21;9.95;;;5.38;;
48805;SDS011;34625;47.176;27.548;2022-12-04T11:05:06;13.18;;;6.97;;
48805;SDS011;34625;47.176;27.548;2022-12-04T11:07:47;13.27;;;6.43;;
48805;SDS011;34625;47.176;27.548;2022-12-04T11:10:19;11.48;;;5.85;;
48805;SDS011;34625;47.176;27.548;2022-12-04T11:15:20;9.07;;;5.63;;
48805;SDS011;34625;47.176;27.548;2022-12-04T11:17:47;8.40;;;5.60;;
48805;SDS011;34625;47.176;27.548;2022-12-04T11:20:17;6.82;;;5.40;;
48805;SDS011;34625;47.176;27.548;2022-12-04T11:25:21;12.73;;;5.68;;
48805;SDS011;34625;47.176;27.548;2022-12-04T11:27:53;5.78;;;4.05;;
48805;SDS011;34625;47.176;27.548;2022-12-04T11:30:26;10.88;;;4.57;;
48805;SDS011;34625;47.176;27.548;2022-12-04T11:32:55;8.98;;;4.72;;
48805;SDS011;34625;47.176;27.548;2022-12-04T11:35:23;9.80;;;5.57;;
48805;SDS011;34625;47.176;27.548;2022-12-04T11:38:00;11.48;;;6.07;;
48805;SDS011;34625;47.176;27.548;2022-12-04T11:40:38;10.23;;;4.97;;
48805;SDS011;34625;47.176;27.548;2022-12-04T11:45:39;12.07;;;6.95;;
48805;SDS011;34625;47.176;27.548;2022-12-04T11:48:13;5.70;;;3.70;;
48805;SDS011;34625;47.176;27.548;2022-12-04T11:50:49;10.75;;;6.57;;
48805;SDS011;34625;47.176;27.548;2022-12-04T11:56:28;8.32;;;6.75;;
48805;SDS011;34625;47.176;27.548;2022-12-04T12:12:48;7.13;;;6.00;;
48805;SDS011;34625;47.176;27.548;2022-12-04T12:15:40;8.15;;;6.00;;
48805;SDS011;34625;47.176;27.548;2022-12-04T12:26:30;9.77;;;6.43;;
48805;SDS011;34625;47.176;27.548;2022-12-04T12:34:28;11.13;;;6.97;;
48805;SDS011;34625;47.176;27.548;2022-12-04T12:36:59;9.45;;;6.57;;
48805;SDS011;34625;47.176;27.548;2022-12-04T12:39:40;8.05;;;5.75;;
48805;SDS011;34625;47.176;27.548;2022-12-04T12:42:19;9.20;;;6.10;;
48805;SDS011;34625;47.176;27.548;2022-12-04T12:44:54;7.75;;;5.32;;
48805;SDS011;34625;47.176;27.548;2022-12-04T12:47:45;7.78;;;4.90;;
48805;SDS011;34625;47.176;27.548;2022-12-04T12:50:17;9.18;;;6.75;;
48805;SDS011;34625;47.176;27.548;2022-12-04T12:55:19;5.30;;;2.53;;
48805;SDS011;34625;47.176;27.548;2022-12-04T12:57:55;11.50;;;7.53;;
48805;SDS011;34625;47.176;27.548;2022-12-04T13:00:29;9.63;;;6.70;;
48805;SDS011;34625;47.176;27.548;2022-12-04T13:06:11;8.52;;;5.53;;
48805;SDS011;34625;47.176;27.548;2022-12-04T13:11:38;10.23;;;4.95;;
48805;SDS011;34625;47.176;27.548;2022-12-04T13:14:04;8.02;;;4.93;;
48805;SDS011;34625;47.176;27.548;2022-12-04T13:16:39;6.20;;;4.72;;
48805;SDS011;34625;47.176;27.548;2022-12-04T13:27:32;6.63;;;5.15;;
48805;SDS011;34625;47.176;27.548;2022-12-04T13:30:18;7.70;;;3.95;;
48805;SDS011;34625;47.176;27.548;2022-12-04T13:41:36;9.25;;;6.28;;
48805;SDS011;34625;47.176;27.548;2022-12-04T13:44:11;10.38;;;6.65;;
48805;SDS011;34625;47.176;27.548;2022-12-04T13:47:04;3.67;;;2.85;;
48805;SDS011;34625;47.176;27.548;2022-12-04T13:49:36;8.25;;;5.88;;
48805;SDS011;34625;47.176;27.548;2022-12-04T13:52:19;6.80;;;4.90;;
48805;SDS011;34625;47.176;27.548;2022-12-04T13:54:57;10.15;;;6.22;;
48805;SDS011;34625;47.176;27.548;2022-12-04T13:57:24;9.60;;;5.43;;
48805;SDS011;34625;47.176;27.548;2022-12-04T14:00:23;10.75;;;6.85;;
48805;SDS011;34625;47.176;27.548;2022-12-04T14:02:54;5.80;;;3.47;;
48805;SDS011;34625;47.176;27.548;2022-12-04T14:05:27;7.65;;;6.13;;
48805;SDS011;34625;47.176;27.548;2022-12-04T14:08:18;8.52;;;7.15;;
48805;SDS011;34625;47.176;27.548;2022-12-04T14:10:56;9.43;;;5.68;;
48805;SDS011;34625;47.176;27.548;2022-12-04T14:16:07;9.77;;;4.65;;
48805;SDS011;34625;47.176;27.548;2022-12-04T14:18:45;8.30;;;5.40;;
48805;SDS011;34625;47.176;27.548;2022-12-04T14:21:13;8.63;;;5.95;;
48805;SDS011;34625;47.176;27.548;2022-12-04T14:23:40;10.77;;;6.18;;
48805;SDS011;34625;47.176;27.548;2022-12-04T14:28:45;9.63;;;6.03;;
48805;SDS011;34625;47.176;27.548;2022-12-04T14:31:20;10.80;;;6.40;;
48805;SDS011;34625;47.176;27.548;2022-12-04T14:36:32;9.85;;;6.45;;
48805;SDS011;34625;47.176;27.548;2022-12-04T14:42:05;9.07;;;5.93;;
48805;SDS011;34625;47.176;27.548;2022-12-04T14:44:45;9.88;;;6.00;;
48805;SDS011;34625;47.176;27.548;2022-12-04T14:47:24;6.32;;;4.78;;
48805;SDS011;34625;47.176;27.548;2022-12-04T14:58:41;8.32;;;3.97;;
48805;SDS011;34625;47.176;27.548;2022-12-04T15:01:18;5.55;;;3.63;;
48805;SDS011;34625;47.176;27.548;2022-12-04T15:03:49;5.10;;;3.25;;
48805;SDS011;34625;47.176;27.548;2022-12-04T15:06:23;8.63;;;3.90;;
48805;SDS011;34625;47.176;27.548;2022-12-04T15:08:57;6.35;;;4.18;;
48805;SDS011;34625;47.176;27.548;2022-12-04T15:11:53;6.68;;;3.45;;
48805;SDS011;34625;47.176;27.548;2022-12-04T15:14:43;8.98;;;3.35;;
48805;SDS011;34625;47.176;27.548;2022-12-04T15:17:11;10.02;;;4.72;;
48805;SDS011;34625;47.176;27.548;2022-12-04T15:19:39;10.05;;;7.05;;
48805;SDS011;34625;47.176;27.548;2022-12-04T15:24:50;30.55;;;13.63;;
48805;SDS011;34625;47.176;27.548;2022-12-04T15:27:19;14.65;;;8.98;;
48805;SDS011;34625;47.176;27.548;2022-12-04T15:29:47;23.75;;;13.48;;
48805;SDS011;34625;47.176;27.548;2022-12-04T15:32:16;25.48;;;14.82;;
48805;SDS011;34625;47.176;27.548;2022-12-04T15:34:46;18.65;;;10.38;;
48805;SDS011;34625;47.176;27.548;2022-12-04T15:39:53;15.82;;;8.95;;
48805;SDS011;34625;47.176;27.548;2022-12-04T15:44:53;134.35;;;35.88;;
48805;SDS011;34625;47.176;27.548;2022-12-04T15:47:30;56.88;;;25.13;;
48805;SDS011;34625;47.176;27.548;2022-12-04T15:50:19;90.20;;;37.90;;
48805;SDS011;34625;47.176;27.548;2022-12-04T15:55:22;135.68;;;60.30;;
48805;SDS011;34625;47.176;27.548;2022-12-04T15:57:50;66.47;;;32.30;;
48805;SDS011;34625;47.176;27.548;2022-12-04T16:00:24;19.80;;;9.02;;
48805;SDS011;34625;47.176;27.548;2022-12-04T16:02:51;16.85;;;9.00;;
48805;SDS011;34625;47.176;27.548;2022-12-04T16:07:51;19.80;;;8.27;;
48805;SDS011;34625;47.176;27.548;2022-12-04T16:10:22;14.52;;;7.07;;
48805;SDS011;34625;47.176;27.548;2022-12-04T16:12:53;14.30;;;7.25;;
48805;SDS011;34625;47.176;27.548;2022-12-04T16:15:21;9.13;;;6.53;;
48805;SDS011;34625;47.176;27.548;2022-12-04T16:17:48;9.75;;;6.57;;
48805;SDS011;34625;47.176;27.548;2022-12-04T16:20:15;8.07;;;4.88;;
48805;SDS011;34625;47.176;27.548;2022-12-04T16:22:41;8.30;;;6.22;;
48805;SDS011;34625;47.176;27.548;2022-12-04T16:25:11;9.50;;;5.22;;
48805;SDS011;34625;47.176;27.548;2022-12-04T16:27:37;6.55;;;4.82;;
48805;SDS011;34625;47.176;27.548;2022-12-04T16:30:04;10.93;;;6.43;;
48805;SDS011;34625;47.176;27.548;2022-12-04T16:32:31;6.88;;;4.75;;
48805;SDS011;34625;47.176;27.548;2022-12-04T16:34:58;11.48;;;5.35;;
48805;SDS011;34625;47.176;27.548;2022-12-04T16:37:25;10.48;;;5.18;;
48805;SDS011;34625;47.176;27.548;2022-12-04T16:39:51;7.82;;;6.05;;
48805;SDS011;34625;47.176;27.548;2022-12-04T16:42:19;9.15;;;6.38;;
48805;SDS011;34625;47.176;27.548;2022-12-04T16:44:45;7.50;;;4.95;;
48805;SDS011;34625;47.176;27.548;2022-12-04T16:47:11;9.35;;;6.18;;
48805;SDS011;34625;47.176;27.548;2022-12-04T16:49:38;8.82;;;5.47;;
48805;SDS011;34625;47.176;27.548;2022-12-04T16:52:04;7.43;;;5.65;;
48805;SDS011;34625;47.176;27.548;2022-12-04T16:54:30;7.47;;;4.80;;
48805;SDS011;34625;47.176;27.548;2022-12-04T16:56:56;5.93;;;4.38;;
48805;SDS011;34625;47.176;27.548;2022-12-04T16:59:22;7.82;;;4.38;;
48805;SDS011;34625;47.176;27.548;2022-12-04T17:01:49;6.88;;;5.03;;
48805;SDS011;34625;47.176;27.548;2022-12-04T17:04:16;5.97;;;3.72;;
48805;SDS011;34625;47.176;27.548;2022-12-04T17:06:43;6.22;;;4.10;;
48805;SDS011;34625;47.176;27.548;2022-12-04T17:09:10;7.63;;;5.45;;
48805;SDS011;34625;47.176;27.548;2022-12-04T17:11:37;7.85;;;5.05;;
48805;SDS011;34625;47.176;27.548;2022-12-04T17:14:03;7.07;;;4.63;;
48805;SDS011;34625;47.176;27.548;2022-12-04T17:16:35;8.63;;;5.90;;
48805;SDS011;34625;47.176;27.548;2022-12-04T17:19:02;12.05;;;8.88;;
48805;SDS011;34625;47.176;27.548;2022-12-04T17:21:29;4.60;;;3.42;;
48805;SDS011;34625;47.176;27.548;2022-12-04T17:23:55;5.45;;;3.70;;